sensor_id;sensor_type;location;lat;lon;timestamp;P1;durP1;ratioP1;P2;durP2;ratioP2
10269;SDS011;70826;50.930;5.334;2023-08-31T00:01:53;1.58;;;1.45;;
10269;SDS011;70826;50.930;5.334;2023-08-31T00:04:23;1.63;;;1.50;;
10269;SDS011;70826;50.930;5.334;2023-08-31T00:06:49;1.50;;;1.40;;
10269;SDS011;70826;50.930;5.334;2023-08-31T00:09:16;1.40;;;1.30;;
10269;SDS011;70826;50.930;5.334;2023-08-31T00:11:44;1.60;;;1.50;;
10269;SDS011;70826;50.930;5.334;2023-08-31T00:14:12;1.70;;;1.30;;
10269;SDS011;70826;50.930;5.334;2023-08-31T00:16:40;1.50;;;1.40;;
10269;SDS011;70826;50.930;5.334;2023-08-31T00:19:08;2.05;;;1.48;;
10269;SDS011;70826;50.930;5.334;2023-08-31T00:21:37;1.70;;;1.60;;
10269;SDS011;70826;50.930;5.334;2023-08-31T00:24:05;1.50;;;1.40;;
10269;SDS011;70826;50.930;5.334;2023-08-31T00:26:37;1.40;;;1.30;;
10269;SDS011;70826;50.930;5.334;2023-08-31T00:29:08;1.40;;;1.30;;
10269;SDS011;70826;50.930;5.334;2023-08-31T00:31:38;1.75;;;1.42;;
10269;SDS011;70826;50.930;5.334;2023-08-31T00:34:03;1.40;;;1.30;;
10269;SDS011;70826;50.930;5.334;2023-08-31T00:36:32;1.30;;;1.20;;
10269;SDS011;70826;50.930;5.334;2023-08-31T00:39:03;1.60;;;1.48;;
10269;SDS011;70826;50.930;5.334;2023-08-31T00:41:38;1.98;;;1.30;;
10269;SDS011;70826;50.930;5.334;2023-08-31T00:44:06;2.25;;;1.42;;
10269;SDS011;70826;50.930;5.334;2023-08-31T00:46:35;1.40;;;1.30;;
10269;SDS011;70826;50.930;5.334;2023-08-31T00:49:03;1.88;;;1.20;;
10269;SDS011;70826;50.930;5.334;2023-08-31T00:51:31;1.70;;;1.60;;
10269;SDS011;70826;50.930;5.334;2023-08-31T00:54:00;1.85;;;1.42;;
10269;SDS011;70826;50.930;5.334;2023-08-31T00:56:29;1.40;;;1.30;;
10269;SDS011;70826;50.930;5.334;2023-08-31T00:58:55;1.45;;;1.35;;
10269;SDS011;70826;50.930;5.334;2023-08-31T01:01:29;2.25;;;1.45;;
10269;SDS011;70826;50.930;5.334;2023-08-31T01:04:17;1.80;;;1.50;;
10269;SDS011;70826;50.930;5.334;2023-08-31T01:12:23;2.70;;;1.40;;
10269;SDS011;70826;50.930;5.334;2023-08-31T01:15:02;1.40;;;1.30;;
10269;SDS011;70826;50.930;5.334;2023-08-31T01:17:33;1.40;;;1.30;;
10269;SDS011;70826;50.930;5.334;2023-08-31T01:20:07;1.50;;;1.40;;
10269;SDS011;70826;50.930;5.334;2023-08-31T01:22:40;1.33;;;1.23;;
10269;SDS011;70826;50.930;5.334;2023-08-31T01:25:14;1.40;;;1.30;;
10269;SDS011;70826;50.930;5.334;2023-08-31T01:27:40;1.50;;;1.40;;
10269;SDS011;70826;50.930;5.334;2023-08-31T01:30:08;1.40;;;1.30;;
10269;SDS011;70826;50.930;5.334;2023-08-31T01:32:36;1.30;;;1.20;;
10269;SDS011;70826;50.930;5.334;2023-08-31T01:35:10;1.70;;;1.40;;
10269;SDS011;70826;50.930;5.334;2023-08-31T01:40:08;1.50;;;1.40;;
10269;SDS011;70826;50.930;5.334;2023-08-31T01:42:42;1.40;;;1.30;;
10269;SDS011;70826;50.930;5.334;2023-08-31T01:45:15;1.40;;;1.30;;
10269;SDS011;70826;50.930;5.334;2023-08-31T01:47:45;1.40;;;1.30;;
10269;SDS011;70826;50.930;5.334;2023-08-31T01:50:16;2.65;;;1.50;;
10269;SDS011;70826;50.930;5.334;2023-08-31T01:52:42;1.60;;;1.50;;
10269;SDS011;70826;50.930;5.334;2023-08-31T01:55:10;1.50;;;1.40;;
10269;SDS011;70826;50.930;5.334;2023-08-31T01:57:40;1.40;;;1.30;;
10269;SDS011;70826;50.930;5.334;2023-08-31T02:00:07;1.77;;;1.50;;
10269;SDS011;70826;50.930;5.334;2023-08-31T02:02:36;1.95;;;1.50;;
10269;SDS011;70826;50.930;5.334;2023-08-31T02:05:04;1.45;;;1.33;;
10269;SDS011;70826;50.930;5.334;2023-08-31T02:07:32;1.55;;;1.45;;
10269;SDS011;70826;50.930;5.334;2023-08-31T02:09:58;1.50;;;1.40;;
10269;SDS011;70826;50.930;5.334;2023-08-31T02:12:26;2.15;;;1.50;;
10269;SDS011;70826;50.930;5.334;2023-08-31T02:14:54;1.35;;;1.25;;
10269;SDS011;70826;50.930;5.334;2023-08-31T02:17:22;1.50;;;1.40;;
10269;SDS011;70826;50.930;5.334;2023-08-31T02:19:50;1.55;;;1.30;;
10269;SDS011;70826;50.930;5.334;2023-08-31T02:22:16;1.50;;;1.40;;
10269;SDS011;70826;50.930;5.334;2023-08-31T02:24:42;1.40;;;1.30;;
10269;SDS011;70826;50.930;5.334;2023-08-31T02:27:11;2.10;;;1.30;;
10269;SDS011;70826;50.930;5.334;2023-08-31T02:29:41;1.50;;;1.40;;
10269;SDS011;70826;50.930;5.334;2023-08-31T02:32:09;1.80;;;1.60;;
10269;SDS011;70826;50.930;5.334;2023-08-31T02:34:39;1.55;;;1.45;;
10269;SDS011;70826;50.930;5.334;2023-08-31T02:37:05;1.50;;;1.40;;
10269;SDS011;70826;50.930;5.334;2023-08-31T02:39:33;1.52;;;1.42;;
10269;SDS011;70826;50.930;5.334;2023-08-31T02:42:01;1.60;;;1.50;;
10269;SDS011;70826;50.930;5.334;2023-08-31T02:44:29;1.70;;;1.60;;
10269;SDS011;70826;50.930;5.334;2023-08-31T02:46:55;1.70;;;1.38;;
10269;SDS011;70826;50.930;5.334;2023-08-31T02:49:22;1.88;;;1.70;;
10269;SDS011;70826;50.930;5.334;2023-08-31T02:51:48;1.60;;;1.50;;
10269;SDS011;70826;50.930;5.334;2023-08-31T02:54:14;1.73;;;1.55;;
10269;SDS011;70826;50.930;5.334;2023-08-31T02:56:44;1.70;;;1.60;;
10269;SDS011;70826;50.930;5.334;2023-08-31T02:59:09;1.80;;;1.70;;
10269;SDS011;70826;50.930;5.334;2023-08-31T03:01:37;1.70;;;1.60;;
10269;SDS011;70826;50.930;5.334;2023-08-31T03:04:04;2.20;;;1.58;;
10269;SDS011;70826;50.930;5.334;2023-08-31T03:06:32;2.00;;;1.60;;
10269;SDS011;70826;50.930;5.334;2023-08-31T03:08:58;1.77;;;1.67;;
10269;SDS011;70826;50.930;5.334;2023-08-31T03:11:27;2.00;;;1.55;;
10269;SDS011;70826;50.930;5.334;2023-08-31T03:13:55;1.70;;;1.60;;
10269;SDS011;70826;50.930;5.334;2023-08-31T03:16:25;2.40;;;1.60;;
10269;SDS011;70826;50.930;5.334;2023-08-31T03:18:51;2.33;;;1.60;;
10269;SDS011;70826;50.930;5.334;2023-08-31T03:21:21;2.00;;;1.80;;
10269;SDS011;70826;50.930;5.334;2023-08-31T03:23:47;1.63;;;1.40;;
10269;SDS011;70826;50.930;5.334;2023-08-31T03:26:15;2.05;;;1.60;;
10269;SDS011;70826;50.930;5.334;2023-08-31T03:28:43;1.98;;;1.70;;
10269;SDS011;70826;50.930;5.334;2023-08-31T03:31:09;1.98;;;1.48;;
10269;SDS011;70826;50.930;5.334;2023-08-31T03:33:37;1.77;;;1.60;;
10269;SDS011;70826;50.930;5.334;2023-08-31T03:36:05;2.53;;;1.70;;
10269;SDS011;70826;50.930;5.334;2023-08-31T03:38:34;1.70;;;1.60;;
10269;SDS011;70826;50.930;5.334;2023-08-31T03:41:02;1.80;;;1.70;;
10269;SDS011;70826;50.930;5.334;2023-08-31T03:43:28;1.70;;;1.60;;
10269;SDS011;70826;50.930;5.334;2023-08-31T03:45:57;1.63;;;1.50;;
10269;SDS011;70826;50.930;5.334;2023-08-31T03:48:23;1.90;;;1.55;;
10269;SDS011;70826;50.930;5.334;2023-08-31T03:50:52;2.00;;;1.67;;
10269;SDS011;70826;50.930;5.334;2023-08-31T03:53:18;2.33;;;1.70;;
10269;SDS011;70826;50.930;5.334;2023-08-31T03:55:46;2.17;;;1.90;;
10269;SDS011;70826;50.930;5.334;2023-08-31T03:58:14;1.88;;;1.70;;
10269;SDS011;70826;50.930;5.334;2023-08-31T04:00:42;2.03;;;1.70;;
10269;SDS011;70826;50.930;5.334;2023-08-31T04:03:08;2.40;;;1.60;;
10269;SDS011;70826;50.930;5.334;2023-08-31T04:05:34;3.55;;;1.80;;
10269;SDS011;70826;50.930;5.334;2023-08-31T04:08:03;2.60;;;1.73;;
10269;SDS011;70826;50.930;5.334;2023-08-31T04:10:33;2.03;;;1.90;;
10269;SDS011;70826;50.930;5.334;2023-08-31T04:12:59;2.05;;;1.60;;
10269;SDS011;70826;50.930;5.334;2023-08-31T04:15:27;2.20;;;1.70;;
10269;SDS011;70826;50.930;5.334;2023-08-31T04:17:53;2.22;;;1.70;;
10269;SDS011;70826;50.930;5.334;2023-08-31T04:20:23;2.33;;;2.03;;
10269;SDS011;70826;50.930;5.334;2023-08-31T04:22:49;1.80;;;1.63;;
10269;SDS011;70826;50.930;5.334;2023-08-31T04:25:17;1.90;;;1.70;;
10269;SDS011;70826;50.930;5.334;2023-08-31T04:27:43;2.67;;;1.55;;
10269;SDS011;70826;50.930;5.334;2023-08-31T04:30:11;1.83;;;1.73;;
10269;SDS011;70826;50.930;5.334;2023-08-31T04:32:37;2.88;;;1.90;;
10269;SDS011;70826;50.930;5.334;2023-08-31T04:35:05;2.03;;;1.60;;
10269;SDS011;70826;50.930;5.334;2023-08-31T04:37:36;1.88;;;1.52;;
10269;SDS011;70826;50.930;5.334;2023-08-31T04:40:04;1.58;;;1.48;;
10269;SDS011;70826;50.930;5.334;2023-08-31T04:42:33;2.45;;;1.70;;
10269;SDS011;70826;50.930;5.334;2023-08-31T04:45:05;2.70;;;1.88;;
10269;SDS011;70826;50.930;5.334;2023-08-31T04:47:33;1.80;;;1.70;;
10269;SDS011;70826;50.930;5.334;2023-08-31T04:49:59;2.67;;;1.90;;
10269;SDS011;70826;50.930;5.334;2023-08-31T04:52:25;2.42;;;1.90;;
10269;SDS011;70826;50.930;5.334;2023-08-31T04:54:55;1.88;;;1.70;;
10269;SDS011;70826;50.930;5.334;2023-08-31T04:57:23;2.13;;;1.77;;
10269;SDS011;70826;50.930;5.334;2023-08-31T04:59:49;3.08;;;1.80;;
10269;SDS011;70826;50.930;5.334;2023-08-31T05:02:15;2.85;;;1.75;;
10269;SDS011;70826;50.930;5.334;2023-08-31T05:04:42;2.42;;;1.80;;
10269;SDS011;70826;50.930;5.334;2023-08-31T05:07:12;2.85;;;2.03;;
10269;SDS011;70826;50.930;5.334;2023-08-31T05:09:40;2.15;;;1.75;;
10269;SDS011;70826;50.930;5.334;2023-08-31T05:12:08;3.15;;;1.70;;
10269;SDS011;70826;50.930;5.334;2023-08-31T05:14:36;1.98;;;1.63;;
10269;SDS011;70826;50.930;5.334;2023-08-31T05:17:05;3.28;;;1.67;;
10269;SDS011;70826;50.930;5.334;2023-08-31T05:19:38;2.65;;;1.80;;
10269;SDS011;70826;50.930;5.334;2023-08-31T05:22:06;2.83;;;1.90;;
10269;SDS011;70826;50.930;5.334;2023-08-31T05:24:32;2.35;;;1.90;;
10269;SDS011;70826;50.930;5.334;2023-08-31T05:26:57;2.80;;;1.90;;
10269;SDS011;70826;50.930;5.334;2023-08-31T05:29:27;3.05;;;1.88;;
10269;SDS011;70826;50.930;5.334;2023-08-31T05:31:59;2.28;;;1.95;;
10269;SDS011;70826;50.930;5.334;2023-08-31T05:34:29;1.98;;;1.67;;
10269;SDS011;70826;50.930;5.334;2023-08-31T05:37:02;2.53;;;1.70;;
10269;SDS011;70826;50.930;5.334;2023-08-31T05:39:33;2.50;;;1.88;;
10269;SDS011;70826;50.930;5.334;2023-08-31T05:41:59;2.30;;;1.85;;
10269;SDS011;70826;50.930;5.334;2023-08-31T05:44:28;2.78;;;1.80;;
10269;SDS011;70826;50.930;5.334;2023-08-31T05:46:59;2.80;;;1.90;;
10269;SDS011;70826;50.930;5.334;2023-08-31T05:49:32;2.50;;;1.83;;
10269;SDS011;70826;50.930;5.334;2023-08-31T05:52:00;1.75;;;1.65;;
10269;SDS011;70826;50.930;5.334;2023-08-31T05:54:28;2.38;;;1.80;;
10269;SDS011;70826;50.930;5.334;2023-08-31T05:56:56;4.40;;;2.20;;
10269;SDS011;70826;50.930;5.334;2023-08-31T05:59:24;4.97;;;2.03;;
10269;SDS011;70826;50.930;5.334;2023-08-31T06:01:52;4.50;;;1.92;;
10269;SDS011;70826;50.930;5.334;2023-08-31T06:04:22;2.53;;;1.88;;
10269;SDS011;70826;50.930;5.334;2023-08-31T06:06:50;3.17;;;1.80;;
10269;SDS011;70826;50.930;5.334;2023-08-31T06:09:20;3.42;;;2.00;;
10269;SDS011;70826;50.930;5.334;2023-08-31T06:11:46;2.40;;;1.80;;
10269;SDS011;70826;50.930;5.334;2023-08-31T06:14:14;2.58;;;1.98;;
10269;SDS011;70826;50.930;5.334;2023-08-31T06:16:40;5.05;;;2.05;;
10269;SDS011;70826;50.930;5.334;2023-08-31T06:19:10;3.42;;;1.80;;
10269;SDS011;70826;50.930;5.334;2023-08-31T06:21:42;3.83;;;1.90;;
10269;SDS011;70826;50.930;5.334;2023-08-31T06:24:13;3.58;;;1.75;;
10269;SDS011;70826;50.930;5.334;2023-08-31T06:26:40;3.13;;;1.80;;
10269;SDS011;70826;50.930;5.334;2023-08-31T06:29:08;2.47;;;1.80;;
10269;SDS011;70826;50.930;5.334;2023-08-31T06:31:38;2.53;;;1.70;;
10269;SDS011;70826;50.930;5.334;2023-08-31T06:34:05;2.60;;;1.90;;
10269;SDS011;70826;50.930;5.334;2023-08-31T06:36:34;3.20;;;1.67;;
10269;SDS011;70826;50.930;5.334;2023-08-31T06:39:00;2.80;;;1.90;;
10269;SDS011;70826;50.930;5.334;2023-08-31T06:41:32;2.58;;;1.73;;
10269;SDS011;70826;50.930;5.334;2023-08-31T06:44:02;2.35;;;2.00;;
10269;SDS011;70826;50.930;5.334;2023-08-31T06:46:31;2.80;;;2.00;;
10269;SDS011;70826;50.930;5.334;2023-08-31T06:49:05;2.55;;;1.90;;
10269;SDS011;70826;50.930;5.334;2023-08-31T06:51:36;3.03;;;1.80;;
10269;SDS011;70826;50.930;5.334;2023-08-31T06:54:04;5.53;;;1.98;;
10269;SDS011;70826;50.930;5.334;2023-08-31T06:56:33;3.35;;;1.83;;
10269;SDS011;70826;50.930;5.334;2023-08-31T06:59:01;2.97;;;2.08;;
10269;SDS011;70826;50.930;5.334;2023-08-31T07:01:27;3.78;;;2.10;;
10269;SDS011;70826;50.930;5.334;2023-08-31T07:03:58;3.47;;;1.95;;
10269;SDS011;70826;50.930;5.334;2023-08-31T07:06:27;2.78;;;2.00;;
10269;SDS011;70826;50.930;5.334;2023-08-31T07:08:53;2.25;;;2.05;;
10269;SDS011;70826;50.930;5.334;2023-08-31T07:11:23;2.17;;;1.98;;
10269;SDS011;70826;50.930;5.334;2023-08-31T07:13:50;3.72;;;1.90;;
10269;SDS011;70826;50.930;5.334;2023-08-31T07:16:18;2.60;;;2.03;;
10269;SDS011;70826;50.930;5.334;2023-08-31T07:18:44;2.30;;;2.08;;
10269;SDS011;70826;50.930;5.334;2023-08-31T07:21:11;3.97;;;2.08;;
10269;SDS011;70826;50.930;5.334;2023-08-31T07:23:39;2.88;;;2.13;;
10269;SDS011;70826;50.930;5.334;2023-08-31T07:26:13;2.50;;;2.00;;
10269;SDS011;70826;50.930;5.334;2023-08-31T07:28:38;2.47;;;2.00;;
10269;SDS011;70826;50.930;5.334;2023-08-31T07:31:05;2.40;;;1.80;;
10269;SDS011;70826;50.930;5.334;2023-08-31T07:33:31;3.42;;;2.00;;
10269;SDS011;70826;50.930;5.334;2023-08-31T07:36:01;2.58;;;2.10;;
10269;SDS011;70826;50.930;5.334;2023-08-31T07:38:29;3.60;;;2.10;;
10269;SDS011;70826;50.930;5.334;2023-08-31T07:41:00;4.28;;;2.30;;
10269;SDS011;70826;50.930;5.334;2023-08-31T07:43:29;3.47;;;2.45;;
10269;SDS011;70826;50.930;5.334;2023-08-31T07:45:55;3.15;;;2.10;;
10269;SDS011;70826;50.930;5.334;2023-08-31T07:48:20;3.22;;;2.22;;
10269;SDS011;70826;50.930;5.334;2023-08-31T07:50:47;2.85;;;2.25;;
10269;SDS011;70826;50.930;5.334;2023-08-31T07:53:13;3.72;;;2.10;;
10269;SDS011;70826;50.930;5.334;2023-08-31T07:55:39;5.50;;;2.30;;
10269;SDS011;70826;50.930;5.334;2023-08-31T07:58:06;4.35;;;2.30;;
10269;SDS011;70826;50.930;5.334;2023-08-31T08:00:31;3.88;;;2.17;;
10269;SDS011;70826;50.930;5.334;2023-08-31T08:02:57;3.03;;;2.28;;
10269;SDS011;70826;50.930;5.334;2023-08-31T08:05:27;4.43;;;1.95;;
10269;SDS011;70826;50.930;5.334;2023-08-31T08:07:53;4.25;;;1.95;;
10269;SDS011;70826;50.930;5.334;2023-08-31T08:10:26;3.20;;;2.30;;
10269;SDS011;70826;50.930;5.334;2023-08-31T08:12:51;3.25;;;2.38;;
10269;SDS011;70826;50.930;5.334;2023-08-31T08:15:17;4.28;;;2.35;;
10269;SDS011;70826;50.930;5.334;2023-08-31T08:17:43;2.80;;;2.20;;
10269;SDS011;70826;50.930;5.334;2023-08-31T08:20:10;3.50;;;2.40;;
10269;SDS011;70826;50.930;5.334;2023-08-31T08:22:39;4.80;;;2.42;;
10269;SDS011;70826;50.930;5.334;2023-08-31T08:25:05;3.33;;;2.33;;
10269;SDS011;70826;50.930;5.334;2023-08-31T08:27:31;3.17;;;2.47;;
10269;SDS011;70826;50.930;5.334;2023-08-31T08:29:58;3.40;;;2.40;;
10269;SDS011;70826;50.930;5.334;2023-08-31T08:32:24;2.55;;;2.20;;
10269;SDS011;70826;50.930;5.334;2023-08-31T08:34:53;3.65;;;2.58;;
10269;SDS011;70826;50.930;5.334;2023-08-31T08:37:18;4.93;;;2.47;;
10269;SDS011;70826;50.930;5.334;2023-08-31T08:39:49;3.70;;;2.78;;
10269;SDS011;70826;50.930;5.334;2023-08-31T08:42:15;5.13;;;2.72;;
10269;SDS011;70826;50.930;5.334;2023-08-31T08:44:46;6.32;;;2.65;;
10269;SDS011;70826;50.930;5.334;2023-08-31T08:47:17;3.92;;;2.35;;
10269;SDS011;70826;50.930;5.334;2023-08-31T08:49:47;4.10;;;2.33;;
10269;SDS011;70826;50.930;5.334;2023-08-31T08:52:13;3.63;;;2.70;;
10269;SDS011;70826;50.930;5.334;2023-08-31T08:54:42;4.13;;;2.58;;
10269;SDS011;70826;50.930;5.334;2023-08-31T08:57:09;4.35;;;2.80;;
10269;SDS011;70826;50.930;5.334;2023-08-31T08:59:35;4.03;;;2.50;;
10269;SDS011;70826;50.930;5.334;2023-08-31T09:02:05;5.65;;;2.30;;
10269;SDS011;70826;50.930;5.334;2023-08-31T09:04:35;4.90;;;2.60;;
10269;SDS011;70826;50.930;5.334;2023-08-31T09:07:03;3.45;;;2.58;;
10269;SDS011;70826;50.930;5.334;2023-08-31T09:09:32;4.40;;;2.42;;
10269;SDS011;70826;50.930;5.334;2023-08-31T09:12:05;3.58;;;2.60;;
10269;SDS011;70826;50.930;5.334;2023-08-31T09:14:33;4.38;;;2.58;;
10269;SDS011;70826;50.930;5.334;2023-08-31T09:16:58;3.90;;;2.72;;
10269;SDS011;70826;50.930;5.334;2023-08-31T09:19:26;3.50;;;2.58;;
10269;SDS011;70826;50.930;5.334;2023-08-31T09:21:57;3.92;;;2.67;;
10269;SDS011;70826;50.930;5.334;2023-08-31T09:24:25;4.50;;;2.65;;
10269;SDS011;70826;50.930;5.334;2023-08-31T09:26:57;3.28;;;2.50;;
10269;SDS011;70826;50.930;5.334;2023-08-31T09:29:25;5.50;;;2.70;;
10269;SDS011;70826;50.930;5.334;2023-08-31T09:31:51;2.78;;;2.28;;
10269;SDS011;70826;50.930;5.334;2023-08-31T09:34:17;2.75;;;2.15;;
10269;SDS011;70826;50.930;5.334;2023-08-31T09:36:44;3.67;;;2.40;;
10269;SDS011;70826;50.930;5.334;2023-08-31T09:39:16;4.43;;;2.45;;
10269;SDS011;70826;50.930;5.334;2023-08-31T09:41:56;4.00;;;2.47;;
10269;SDS011;70826;50.930;5.334;2023-08-31T09:44:24;3.65;;;2.45;;
10269;SDS011;70826;50.930;5.334;2023-08-31T09:46:54;4.30;;;2.58;;
10269;SDS011;70826;50.930;5.334;2023-08-31T09:49:30;4.57;;;2.47;;
10269;SDS011;70826;50.930;5.334;2023-08-31T09:51:57;4.30;;;2.30;;
10269;SDS011;70826;50.930;5.334;2023-08-31T09:54:31;3.08;;;2.15;;
10269;SDS011;70826;50.930;5.334;2023-08-31T09:57:06;3.58;;;2.28;;
10269;SDS011;70826;50.930;5.334;2023-08-31T09:59:31;4.93;;;2.50;;
10269;SDS011;70826;50.930;5.334;2023-08-31T10:02:02;3.38;;;2.17;;
10269;SDS011;70826;50.930;5.334;2023-08-31T10:04:30;7.30;;;3.00;;
10269;SDS011;70826;50.930;5.334;2023-08-31T10:07:02;10.93;;;3.10;;
10269;SDS011;70826;50.930;5.334;2023-08-31T10:09:31;17.30;;;3.50;;
10269;SDS011;70826;50.930;5.334;2023-08-31T10:12:00;11.00;;;3.00;;
10269;SDS011;70826;50.930;5.334;2023-08-31T10:14:29;7.32;;;2.88;;
10269;SDS011;70826;50.930;5.334;2023-08-31T10:16:57;10.85;;;2.67;;
10269;SDS011;70826;50.930;5.334;2023-08-31T10:19:23;7.13;;;2.90;;
10269;SDS011;70826;50.930;5.334;2023-08-31T10:21:52;5.75;;;2.70;;
10269;SDS011;70826;50.930;5.334;2023-08-31T10:24:18;3.88;;;2.30;;
10269;SDS011;70826;50.930;5.334;2023-08-31T10:27:19;5.82;;;2.75;;
10269;SDS011;70826;50.930;5.334;2023-08-31T10:29:44;5.88;;;2.60;;
10269;SDS011;70826;50.930;5.334;2023-08-31T10:32:10;7.38;;;2.70;;
10269;SDS011;70826;50.930;5.334;2023-08-31T10:34:43;6.32;;;2.67;;
10269;SDS011;70826;50.930;5.334;2023-08-31T10:37:21;5.47;;;2.60;;
10269;SDS011;70826;50.930;5.334;2023-08-31T10:39:48;6.40;;;2.92;;
10269;SDS011;70826;50.930;5.334;2023-08-31T10:42:16;4.85;;;2.60;;
10269;SDS011;70826;50.930;5.334;2023-08-31T10:44:42;5.32;;;2.45;;
10269;SDS011;70826;50.930;5.334;2023-08-31T10:47:08;5.72;;;2.53;;
10269;SDS011;70826;50.930;5.334;2023-08-31T10:49:37;3.60;;;2.25;;
10269;SDS011;70826;50.930;5.334;2023-08-31T10:54:45;8.77;;;3.17;;
10269;SDS011;70826;50.930;5.334;2023-08-31T10:57:16;9.35;;;2.67;;
10269;SDS011;70826;50.930;5.334;2023-08-31T10:59:56;5.72;;;2.40;;
10269;SDS011;70826;50.930;5.334;2023-08-31T11:05:14;7.22;;;2.50;;
10269;SDS011;70826;50.930;5.334;2023-08-31T11:07:45;9.32;;;2.80;;
10269;SDS011;70826;50.930;5.334;2023-08-31T11:12:52;9.73;;;2.85;;
10269;SDS011;70826;50.930;5.334;2023-08-31T11:15:26;8.30;;;2.80;;
10269;SDS011;70826;50.930;5.334;2023-08-31T11:17:55;7.70;;;2.72;;
10269;SDS011;70826;50.930;5.334;2023-08-31T11:20:24;5.95;;;2.30;;
10269;SDS011;70826;50.930;5.334;2023-08-31T11:22:58;5.07;;;2.40;;
10269;SDS011;70826;50.930;5.334;2023-08-31T11:25:29;6.88;;;2.17;;
10269;SDS011;70826;50.930;5.334;2023-08-31T11:27:59;4.30;;;2.00;;
10269;SDS011;70826;50.930;5.334;2023-08-31T11:30:26;4.22;;;2.00;;
10269;SDS011;70826;50.930;5.334;2023-08-31T11:32:56;5.00;;;2.28;;
10269;SDS011;70826;50.930;5.334;2023-08-31T11:35:31;3.78;;;2.15;;
10269;SDS011;70826;50.930;5.334;2023-08-31T11:38:02;7.55;;;2.20;;
10269;SDS011;70826;50.930;5.334;2023-08-31T11:40:30;4.50;;;2.10;;
10269;SDS011;70826;50.930;5.334;2023-08-31T11:42:57;5.93;;;2.30;;
10269;SDS011;70826;50.930;5.334;2023-08-31T11:45:28;5.30;;;2.15;;
10269;SDS011;70826;50.930;5.334;2023-08-31T11:47:59;7.97;;;2.40;;
10269;SDS011;70826;50.930;5.334;2023-08-31T11:50:28;4.22;;;2.13;;
10269;SDS011;70826;50.930;5.334;2023-08-31T11:52:54;5.18;;;1.90;;
10269;SDS011;70826;50.930;5.334;2023-08-31T11:55:23;7.75;;;1.90;;
10269;SDS011;70826;50.930;5.334;2023-08-31T11:57:49;3.42;;;2.00;;
10269;SDS011;70826;50.930;5.334;2023-08-31T12:00:21;3.53;;;2.10;;
10269;SDS011;70826;50.930;5.334;2023-08-31T12:02:57;3.83;;;1.95;;
10269;SDS011;70826;50.930;5.334;2023-08-31T12:05:23;3.95;;;1.98;;
10269;SDS011;70826;50.930;5.334;2023-08-31T12:07:55;7.93;;;2.10;;
10269;SDS011;70826;50.930;5.334;2023-08-31T12:10:26;10.77;;;2.15;;
10269;SDS011;70826;50.930;5.334;2023-08-31T12:12:51;5.68;;;2.10;;
10269;SDS011;70826;50.930;5.334;2023-08-31T12:15:21;11.75;;;2.38;;
10269;SDS011;70826;50.930;5.334;2023-08-31T12:17:48;10.07;;;2.40;;
10269;SDS011;70826;50.930;5.334;2023-08-31T12:20:24;6.72;;;2.17;;
10269;SDS011;70826;50.930;5.334;2023-08-31T12:22:51;7.70;;;2.20;;
10269;SDS011;70826;50.930;5.334;2023-08-31T12:25:22;3.78;;;1.90;;
10269;SDS011;70826;50.930;5.334;2023-08-31T12:27:50;4.80;;;2.10;;
10269;SDS011;70826;50.930;5.334;2023-08-31T12:30:18;3.33;;;2.30;;
10269;SDS011;70826;50.930;5.334;2023-08-31T12:32:53;4.53;;;2.08;;
10269;SDS011;70826;50.930;5.334;2023-08-31T12:35:21;4.45;;;2.30;;
10269;SDS011;70826;50.930;5.334;2023-08-31T12:37:49;3.63;;;2.25;;
10269;SDS011;70826;50.930;5.334;2023-08-31T12:40:15;4.07;;;2.28;;
10269;SDS011;70826;50.930;5.334;2023-08-31T12:42:45;3.78;;;2.20;;
10269;SDS011;70826;50.930;5.334;2023-08-31T12:45:10;3.20;;;2.00;;
10269;SDS011;70826;50.930;5.334;2023-08-31T12:47:36;2.70;;;2.17;;
10269;SDS011;70826;50.930;5.334;2023-08-31T12:50:04;4.50;;;2.33;;
10269;SDS011;70826;50.930;5.334;2023-08-31T12:52:30;3.25;;;2.28;;
10269;SDS011;70826;50.930;5.334;2023-08-31T12:54:58;4.55;;;2.30;;
10269;SDS011;70826;50.930;5.334;2023-08-31T12:57:26;3.35;;;2.20;;
10269;SDS011;70826;50.930;5.334;2023-08-31T12:59:54;3.40;;;2.15;;
10269;SDS011;70826;50.930;5.334;2023-08-31T13:02:22;2.90;;;2.20;;
10269;SDS011;70826;50.930;5.334;2023-08-31T13:04:50;3.05;;;2.10;;
10269;SDS011;70826;50.930;5.334;2023-08-31T13:07:18;4.43;;;2.25;;
10269;SDS011;70826;50.930;5.334;2023-08-31T13:09:46;3.00;;;2.20;;
10269;SDS011;70826;50.930;5.334;2023-08-31T13:12:12;3.10;;;2.33;;
10269;SDS011;70826;50.930;5.334;2023-08-31T13:14:40;2.33;;;2.10;;
10269;SDS011;70826;50.930;5.334;2023-08-31T13:17:10;2.90;;;2.20;;
10269;SDS011;70826;50.930;5.334;2023-08-31T13:19:38;2.63;;;2.10;;
10269;SDS011;70826;50.930;5.334;2023-08-31T13:22:09;3.08;;;2.20;;
10269;SDS011;70826;50.930;5.334;2023-08-31T13:24:40;2.72;;;2.10;;
10269;SDS011;70826;50.930;5.334;2023-08-31T13:27:06;2.85;;;2.17;;
10269;SDS011;70826;50.930;5.334;2023-08-31T13:29:31;3.40;;;2.22;;
10269;SDS011;70826;50.930;5.334;2023-08-31T13:31:59;3.03;;;2.20;;
10269;SDS011;70826;50.930;5.334;2023-08-31T13:34:28;2.83;;;2.30;;
10269;SDS011;70826;50.930;5.334;2023-08-31T13:36:55;3.10;;;1.95;;
10269;SDS011;70826;50.930;5.334;2023-08-31T13:39:26;3.42;;;2.13;;
10269;SDS011;70826;50.930;5.334;2023-08-31T13:41:57;2.47;;;2.17;;
10269;SDS011;70826;50.930;5.334;2023-08-31T13:44:23;2.05;;;1.85;;
10269;SDS011;70826;50.930;5.334;2023-08-31T13:46:51;2.72;;;2.00;;
10269;SDS011;70826;50.930;5.334;2023-08-31T13:49:17;5.43;;;2.22;;
10269;SDS011;70826;50.930;5.334;2023-08-31T13:51:47;2.90;;;2.13;;
10269;SDS011;70826;50.930;5.334;2023-08-31T13:54:17;3.33;;;2.03;;
10269;SDS011;70826;50.930;5.334;2023-08-31T13:56:45;3.78;;;2.10;;
10269;SDS011;70826;50.930;5.334;2023-08-31T13:59:13;2.50;;;2.20;;
10269;SDS011;70826;50.930;5.334;2023-08-31T14:01:41;4.45;;;2.20;;
10269;SDS011;70826;50.930;5.334;2023-08-31T14:04:12;2.75;;;2.10;;
10269;SDS011;70826;50.930;5.334;2023-08-31T14:06:42;4.63;;;2.20;;
10269;SDS011;70826;50.930;5.334;2023-08-31T14:09:08;4.32;;;2.20;;
10269;SDS011;70826;50.930;5.334;2023-08-31T14:11:36;2.65;;;2.10;;
10269;SDS011;70826;50.930;5.334;2023-08-31T14:14:07;2.15;;;1.92;;
10269;SDS011;70826;50.930;5.334;2023-08-31T14:16:39;2.45;;;2.03;;
10269;SDS011;70826;50.930;5.334;2023-08-31T14:19:07;4.07;;;2.17;;
10269;SDS011;70826;50.930;5.334;2023-08-31T14:21:36;2.47;;;2.17;;
10269;SDS011;70826;50.930;5.334;2023-08-31T14:24:02;2.25;;;1.95;;
10269;SDS011;70826;50.930;5.334;2023-08-31T14:26:30;2.58;;;2.00;;
10269;SDS011;70826;50.930;5.334;2023-08-31T14:28:58;2.65;;;2.08;;
10269;SDS011;70826;50.930;5.334;2023-08-31T14:31:24;4.13;;;2.17;;
10269;SDS011;70826;50.930;5.334;2023-08-31T14:33:52;2.10;;;1.70;;
10269;SDS011;70826;50.930;5.334;2023-08-31T14:36:20;2.50;;;1.83;;
10269;SDS011;70826;50.930;5.334;2023-08-31T14:38:46;2.53;;;2.00;;
10269;SDS011;70826;50.930;5.334;2023-08-31T14:41:14;2.35;;;1.98;;
10269;SDS011;70826;50.930;5.334;2023-08-31T14:43:42;3.53;;;2.30;;
10269;SDS011;70826;50.930;5.334;2023-08-31T14:46:10;2.65;;;2.20;;
10269;SDS011;70826;50.930;5.334;2023-08-31T14:48:38;2.20;;;2.00;;
10269;SDS011;70826;50.930;5.334;2023-08-31T14:51:06;4.13;;;1.95;;
10269;SDS011;70826;50.930;5.334;2023-08-31T14:53:34;2.70;;;1.92;;
10269;SDS011;70826;50.930;5.334;2023-08-31T14:56:02;2.55;;;2.00;;
10269;SDS011;70826;50.930;5.334;2023-08-31T14:58:30;2.65;;;2.20;;
10269;SDS011;70826;50.930;5.334;2023-08-31T15:00:57;6.47;;;2.30;;
10269;SDS011;70826;50.930;5.334;2023-08-31T15:03:23;2.88;;;1.90;;
10269;SDS011;70826;50.930;5.334;2023-08-31T15:05:51;3.50;;;2.30;;
10269;SDS011;70826;50.930;5.334;2023-08-31T15:08:21;7.30;;;2.33;;
10269;SDS011;70826;50.930;5.334;2023-08-31T15:11:00;17.90;;;2.92;;
10269;SDS011;70826;50.930;5.334;2023-08-31T15:13:27;8.60;;;2.70;;